Time;durP1;ratioP1;P1;durP2;ratioP2;P2;SDS_P1;SDS_P2;PMS_P1;PMS_P2;Temp;Humidity;BMP_temperature;BMP_pressure;BME280_temperature;BME280_humidity;BME280_pressure;Samples;Min_cycle;Max_cycle;Signal;HPM_P1;HPM_P2
2022/11/29 00:01:01;;;;;;;111.50;50.20;;;;;;;;;;6274639;22;20292;-68
2022/11/29 00:03:27;;;;;;;100.97;49.17;;;;;;;;;;6276595;22;20157;-68
2022/11/29 00:05:54;;;;;;;124.03;50.10;;;;;;;;;;6276455;22;20196;-68
2022/11/29 00:08:20;;;;;;;120.87;49.20;;;;;;;;;;6278543;22;20248;-68
2022/11/29 00:10:46;;;;;;;128.47;54.50;;;;;;;;;;6278021;22;20153;-68
2022/11/29 00:13:12;;;;;;;107.47;49.43;;;;;;;;;;6277948;22;20218;-69
2022/11/29 00:15:38;;;;;;;114.47;52.90;;;;;;;;;;6276303;22;20621;-68
2022/11/29 00:18:05;;;;;;;126.50;51.67;;;;;;;;;;6278199;22;20149;-67
2022/11/29 00:20:32;;;;;;;108.13;52.90;;;;;;;;;;6276441;22;20153;-68
2022/11/29 00:22:58;;;;;;;124.67;53.57;;;;;;;;;;6277879;22;20195;-68
2022/11/29 00:25:24;;;;;;;110.67;54.67;;;;;;;;;;6276296;22;20177;-68
2022/11/29 00:27:50;;;;;;;123.00;53.83;;;;;;;;;;6279070;22;20499;-69
2022/11/29 00:30:16;;;;;;;106.73;52.67;;;;;;;;;;6276993;22;20241;-68
2022/11/29 00:32:42;;;;;;;116.47;53.10;;;;;;;;;;6278055;22;20276;-67
2022/11/29 00:35:08;;;;;;;114.70;54.80;;;;;;;;;;6298225;22;20642;-68
2022/11/29 00:37:34;;;;;;;113.43;53.20;;;;;;;;;;6281409;22;20176;-68
2022/11/29 00:40:00;;;;;;;120.93;55.20;;;;;;;;;;6281482;22;20176;-68
2022/11/29 00:42:26;;;;;;;110.20;53.17;;;;;;;;;;6281327;22;20162;-68
2022/11/29 00:44:52;;;;;;;112.83;55.43;;;;;;;;;;6281270;22;20188;-68
2022/11/29 00:47:18;;;;;;;113.40;52.33;;;;;;;;;;6308739;22;20157;-67
2022/11/29 00:49:44;;;;;;;137.70;56.43;;;;;;;;;;6281644;22;20196;-68
2022/11/29 00:52:09;;;;;;;125.20;55.13;;;;;;;;;;6286048;22;20161;-68
2022/11/29 00:54:35;;;;;;;126.70;55.57;;;;;;;;;;6314624;22;20185;-67
2022/11/29 00:57:01;;;;;;;140.07;57.00;;;;;;;;;;6314309;22;20175;-67
2022/11/29 00:59:29;;;;;;;135.03;57.13;;;;;;;;;;6314711;22;20148;-68
2022/11/29 01:01:55;;;;;;;138.80;56.10;;;;;;;;;;6281343;22;20152;-68
2022/11/29 01:04:21;;;;;;;138.10;56.17;;;;;;;;;;6281044;22;20187;-68
2022/11/29 01:06:49;;;;;;;139.90;60.43;;;;;;;;;;6308477;22;20644;-68
2022/11/29 01:09:15;;;;;;;138.00;57.77;;;;;;;;;;6308689;22;20217;-68
2022/11/29 01:11:41;;;;;;;153.63;59.63;;;;;;;;;;6308430;22;20658;-68
2022/11/29 01:14:07;;;;;;;144.47;57.77;;;;;;;;;;6280783;22;20642;-68
2022/11/29 01:16:33;;;;;;;139.40;55.33;;;;;;;;;;6308384;22;20144;-68
2022/11/29 01:18:59;;;;;;;147.03;56.87;;;;;;;;;;6309000;22;20206;-68
2022/11/29 01:21:26;;;;;;;160.60;57.77;;;;;;;;;;6308729;22;20583;-68
2022/11/29 01:23:52;;;;;;;150.53;57.40;;;;;;;;;;6308130;22;20169;-68
2022/11/29 01:26:19;;;;;;;147.47;58.83;;;;;;;;;;6308029;22;20148;-68
2022/11/29 01:28:46;;;;;;;164.93;56.87;;;;;;;;;;6280764;22;20156;-68
2022/11/29 01:31:14;;;;;;;164.07;58.03;;;;;;;;;;6308012;22;20153;-68
2022/11/29 01:33:40;;;;;;;168.53;57.47;;;;;;;;;;6307811;22;20226;-68
2022/11/29 01:36:07;;;;;;;170.27;57.40;;;;;;;;;;6280832;22;20198;-68
2022/11/29 01:38:33;;;;;;;177.63;59.50;;;;;;;;;;6280722;22;20161;-68
2022/11/29 01:41:00;;;;;;;192.83;60.87;;;;;;;;;;6280729;22;20148;-68
2022/11/29 01:43:26;;;;;;;179.03;60.00;;;;;;;;;;6280665;22;20156;-67
2022/11/29 01:45:53;;;;;;;186.10;61.20;;;;;;;;;;6307925;22;20172;-68
2022/11/29 01:48:22;;;;;;;190.63;62.63;;;;;;;;;;6280555;22;20539;-68
2022/11/29 01:50:48;;;;;;;192.70;61.07;;;;;;;;;;6308083;22;20168;-68
2022/11/29 01:53:14;;;;;;;204.07;60.23;;;;;;;;;;6307799;22;20144;-68
2022/11/29 01:55:41;;;;;;;207.00;60.57;;;;;;;;;;6308476;22;20267;-68
2022/11/29 01:58:08;;;;;;;201.17;61.47;;;;;;;;;;6280573;22;20598;-68
2022/11/29 02:00:34;;;;;;;210.37;64.60;;;;;;;;;;6308274;22;20586;-68
2022/11/29 02:03:18;;;;;;;205.93;63.43;;;;;;;;;;6280459;22;20602;-68
2022/11/29 02:05:46;;;;;;;212.23;63.50;;;;;;;;;;6307776;22;20199;-68
2022/11/29 02:08:13;;;;;;;222.47;67.23;;;;;;;;;;6308631;22;20160;-69
2022/11/29 02:10:48;;;;;;;217.27;64.17;;;;;;;;;;6311187;22;20232;-68
2022/11/29 02:13:31;;;;;;;221.93;64.23;;;;;;;;;;6307878;22;20621;-68
2022/11/29 02:16:02;;;;;;;227.10;63.53;;;;;;;;;;6308148;22;20133;-68
2022/11/29 02:18:47;;;;;;;249.20;65.87;;;;;;;;;;6280383;22;20582;-68
2022/11/29 02:21:24;;;;;;;247.87;66.97;;;;;;;;;;6307706;22;20144;-68
2022/11/29 02:23:58;;;;;;;256.50;66.73;;;;;;;;;;6307662;22;20574;-68
2022/11/29 02:26:27;;;;;;;273.63;70.47;;;;;;;;;;6308128;22;20192;-68
2022/11/29 02:29:12;;;;;;;300.77;75.07;;;;;;;;;;6280396;22;20164;-68
2022/11/29 02:31:56;;;;;;;270.20;71.43;;;;;;;;;;6307697;22;20466;-68
2022/11/29 02:34:41;;;;;;;268.93;70.83;;;;;;;;;;6307404;22;20195;-68
2022/11/29 02:37:17;;;;;;;259.47;71.83;;;;;;;;;;6280272;22;20233;-68
2022/11/29 02:39:46;;;;;;;280.07;69.23;;;;;;;;;;6308048;22;20207;-68
2022/11/29 02:42:30;;;;;;;284.87;71.53;;;;;;;;;;6307496;22;20160;-68
2022/11/29 02:45:14;;;;;;;290.20;72.40;;;;;;;;;;6307503;22;20246;-68
2022/11/29 02:47:49;;;;;;;298.37;74.80;;;;;;;;;;6308034;22;20145;-68
2022/11/29 02:50:38;;;;;;;269.47;69.47;;;;;;;;;;6307925;22;20144;-68
2022/11/29 02:53:19;;;;;;;292.80;70.73;;;;;;;;;;6307610;22;20137;-68
2022/11/29 02:55:45;;;;;;;279.97;71.87;;;;;;;;;;6307492;22;20517;-68
2022/11/29 02:58:18;;;;;;;296.13;71.93;;;;;;;;;;6280459;22;20199;-68
2022/11/29 03:00:51;;;;;;;301.17;71.87;;;;;;;;;;6309144;22;20137;-68
2022/11/29 03:03:30;;;;;;;326.97;74.97;;;;;;;;;;6285993;22;20141;-68
2022/11/29 03:06:06;;;;;;;342.40;76.00;;;;;;;;;;6307571;22;20160;-68
2022/11/29 03:08:35;;;;;;;317.70;71.60;;;;;;;;;;6307608;22;20180;-68
2022/11/29 03:11:11;;;;;;;329.37;75.47;;;;;;;;;;6280198;22;20152;-68
2022/11/29 03:13:56;;;;;;;292.50;71.63;;;;;;;;;;6307362;22;20482;-68
2022/11/29 03:16:27;;;;;;;324.80;73.70;;;;;;;;;;6307697;22;20652;-68
2022/11/29 03:19:05;;;;;;;295.17;71.33;;;;;;;;;;6307454;22;20223;-68
2022/11/29 03:21:49;;;;;;;352.73;75.53;;;;;;;;;;6280106;22;20143;-68
2022/11/29 03:24:20;;;;;;;292.97;72.67;;;;;;;;;;6279884;22;20180;-68
2022/11/29 03:26:51;;;;;;;310.23;75.23;;;;;;;;;;6307793;22;20475;-68
2022/11/29 03:29:32;;;;;;;290.17;70.27;;;;;;;;;;6280228;22;20167;-68
2022/11/29 03:31:58;;;;;;;289.77;70.40;;;;;;;;;;6279937;22;20191;-68
2022/11/29 03:34:46;;;;;;;306.03;71.47;;;;;;;;;;6307262;22;20188;-68
2022/11/29 03:37:17;;;;;;;293.03;69.97;;;;;;;;;;6307831;22;20140;-68
2022/11/29 03:39:43;;;;;;;283.03;72.23;;;;;;;;;;6279996;22;20233;-68
2022/11/29 03:42:29;;;;;;;288.63;72.60;;;;;;;;;;6308129;22;20144;-69
2022/11/29 03:45:02;;;;;;;301.10;74.77;;;;;;;;;;6266011;22;20701;-68
2022/11/29 03:47:34;;;;;;;277.30;69.73;;;;;;;;;;6309463;22;20140;-68
2022/11/29 03:50:00;;;;;;;302.50;71.20;;;;;;;;;;6282020;22;20145;-68
2022/11/29 03:52:38;;;;;;;299.07;68.30;;;;;;;;;;6310388;22;20160;-68
2022/11/29 03:55:24;;;;;;;284.80;66.70;;;;;;;;;;6281833;22;20191;-69
2022/11/29 03:58:09;;;;;;;292.10;67.40;;;;;;;;;;6309330;22;20644;-68
2022/11/29 04:01:01;;;;;;;298.83;68.83;;;;;;;;;;6281807;22;20156;-68
2022/11/29 04:03:39;;;;;;;288.93;64.57;;;;;;;;;;6247188;22;20236;-69
2022/11/29 04:06:24;;;;;;;243.70;62.50;;;;;;;;;;6309393;22;20148;-68
2022/11/29 04:09:17;;;;;;;280.33;65.90;;;;;;;;;;6281659;22;20607;-68
2022/11/29 04:11:58;;;;;;;262.27;64.37;;;;;;;;;;6309058;22;20194;-68
2022/11/29 04:14:33;;;;;;;268.90;66.37;;;;;;;;;;6309086;22;20184;-68
2022/11/29 04:17:10;;;;;;;256.50;64.90;;;;;;;;;;6308936;22;20594;-68
2022/11/29 04:19:55;;;;;;;273.67;63.73;;;;;;;;;;6309638;22;20213;-68
2022/11/29 04:22:39;;;;;;;259.43;64.33;;;;;;;;;;6309241;22;20157;-68
2022/11/29 04:25:11;;;;;;;284.23;62.73;;;;;;;;;;6308742;22;20195;-69
2022/11/29 04:27:40;;;;;;;268.83;62.67;;;;;;;;;;6308869;22;20153;-68
2022/11/29 04:30:13;;;;;;;253.03;60.97;;;;;;;;;;6281533;22;20156;-68
2022/11/29 04:32:54;;;;;;;256.73;61.03;;;;;;;;;;6308815;22;20152;-68
2022/11/29 04:35:26;;;;;;;283.53;63.53;;;;;;;;;;6308533;22;20192;-68
2022/11/29 04:37:55;;;;;;;268.10;63.30;;;;;;;;;;6281395;22;20149;-68
2022/11/29 04:40:33;;;;;;;294.87;66.03;;;;;;;;;;6308738;22;20148;-68
2022/11/29 04:43:14;;;;;;;267.40;62.47;;;;;;;;;;6308944;22;20144;-68
2022/11/29 04:45:40;;;;;;;278.70;60.17;;;;;;;;;;6282247;22;20176;-68
2022/11/29 04:48:21;;;;;;;289.33;65.70;;;;;;;;;;6308649;22;20235;-68
2022/11/29 04:50:53;;;;;;;272.10;63.57;;;;;;;;;;6308983;22;20655;-68
2022/11/29 04:53:48;;;;;;;294.93;62.37;;;;;;;;;;6280679;22;20156;-68
2022/11/29 04:56:20;;;;;;;338.93;63.27;;;;;;;;;;6282148;22;20157;-68
2022/11/29 04:59:00;;;;;;;295.50;59.27;;;;;;;;;;6308912;22;20519;-68
2022/11/29 05:01:42;;;;;;;339.60;65.70;;;;;;;;;;6281107;22;20189;-68
2022/11/29 05:04:19;;;;;;;379.80;62.60;;;;;;;;;;6281187;22;20176;-68
2022/11/29 05:06:52;;;;;;;449.63;65.33;;;;;;;;;;6308793;22;20148;-68
2022/11/29 05:09:44;;;;;;;358.10;63.30;;;;;;;;;;6281131;22;20575;-68
2022/11/29 05:12:32;;;;;;;474.63;64.73;;;;;;;;;;6281146;22;20152;-68
2022/11/29 05:15:01;;;;;;;671.87;70.27;;;;;;;;;;6280867;22;20208;-69
2022/11/29 05:17:26;;;;;;;714.53;69.60;;;;;;;;;;6308510;22;20152;-68
2022/11/29 05:20:00;;;;;;;470.23;62.50;;;;;;;;;;6308802;22;20153;-68
2022/11/29 05:22:44;;;;;;;579.33;64.67;;;;;;;;;;6308499;22;20228;-68
2022/11/29 05:25:21;;;;;;;1112.70;75.83;;;;;;;;;;6280951;22;20187;-67
2022/11/29 05:27:55;;;;;;;1083.43;79.23;;;;;;;;;;6308723;22;20574;-70
2022/11/29 05:30:22;;;;;;;920.90;70.97;;;;;;;;;;6308667;22;20562;-68
2022/11/29 05:33:08;;;;;;;723.37;72.23;;;;;;;;;;6280981;22;20160;-68
2022/11/29 05:35:54;;;;;;;861.63;69.73;;;;;;;;;;6282001;22;20290;-68
2022/11/29 05:38:31;;;;;;;574.73;65.33;;;;;;;;;;6309124;22;20626;-69
2022/11/29 05:41:15;;;;;;;832.60;72.47;;;;;;;;;;6308247;22;20137;-68
2022/11/29 05:43:53;;;;;;;862.03;66.93;;;;;;;;;;6280603;22;20157;-68
2022/11/29 05:46:33;;;;;;;675.77;64.87;;;;;;;;;;6308231;22;20141;-68
2022/11/29 05:49:18;;;;;;;621.13;60.70;;;;;;;;;;6309094;22;20203;-69
2022/11/29 05:51:46;;;;;;;461.53;57.33;;;;;;;;;;6309423;22;20609;-70
2022/11/29 05:54:31;;;;;;;677.93;62.23;;;;;;;;;;6309018;22;20192;-69
2022/11/29 05:57:03;;;;;;;604.10;59.87;;;;;;;;;;6308736;22;20231;-69
2022/11/29 05:59:30;;;;;;;634.43;61.90;;;;;;;;;;6311389;22;20532;-70
2022/11/29 06:02:08;;;;;;;706.63;59.70;;;;;;;;;;6311126;22;20148;-71
2022/11/29 06:04:44;;;;;;;496.60;56.77;;;;;;;;;;6310867;22;20228;-70
2022/11/29 06:07:13;;;;;;;575.10;57.33;;;;;;;;;;6309751;22;20220;-70
2022/11/29 06:10:00;;;;;;;565.33;60.10;;;;;;;;;;6309429;22;20495;-70
2022/11/29 06:12:29;;;;;;;478.30;58.53;;;;;;;;;;6309267;22;20156;-70
2022/11/29 06:14:55;;;;;;;362.37;54.10;;;;;;;;;;6308589;22;20186;-69
2022/11/29 06:17:54;;;;;;;303.90;53.00;;;;;;;;;;6315281;22;20165;-70
2022/11/29 06:20:29;;;;;;;299.50;50.97;;;;;;;;;;6264671;22;20156;-70
2022/11/29 06:23:15;;;;;;;272.53;51.43;;;;;;;;;;6316310;22;20151;-70
2022/11/29 06:25:59;;;;;;;322.87;52.87;;;;;;;;;;6313516;22;20145;-69
2022/11/29 06:28:32;;;;;;;367.73;55.80;;;;;;;;;;6312622;22;20180;-69
2022/11/29 06:31:17;;;;;;;310.27;55.97;;;;;;;;;;6311500;22;20159;-70
2022/11/29 06:33:43;;;;;;;298.80;53.17;;;;;;;;;;6309277;22;20258;-70
2022/11/29 06:36:15;;;;;;;262.77;52.30;;;;;;;;;;6308972;22;20227;-70
2022/11/29 06:38:41;;;;;;;299.20;55.67;;;;;;;;;;6310287;22;20169;-70
2022/11/29 06:41:12;;;;;;;263.77;50.90;;;;;;;;;;6309418;22;20194;-69
2022/11/29 06:43:38;;;;;;;244.77;50.00;;;;;;;;;;6308726;22;20490;-70
2022/11/29 06:46:15;;;;;;;274.67;50.57;;;;;;;;;;6307883;22;20157;-70
2022/11/29 06:48:51;;;;;;;245.67;48.37;;;;;;;;;;6313650;22;20180;-70
2022/11/29 06:51:29;;;;;;;248.17;49.93;;;;;;;;;;6329443;22;20254;-70
2022/11/29 06:54:00;;;;;;;250.50;48.90;;;;;;;;;;6328994;22;20221;-70
2022/11/29 06:56:41;;;;;;;270.57;49.93;;;;;;;;;;6329381;22;20229;-70
2022/11/29 06:59:19;;;;;;;233.57;46.90;;;;;;;;;;6330054;22;20175;-70
2022/11/29 07:01:47;;;;;;;228.97;45.17;;;;;;;;;;6330519;22;20159;-70
2022/11/29 07:04:16;;;;;;;233.23;44.60;;;;;;;;;;6329361;22;20149;-70
2022/11/29 07:06:42;;;;;;;223.33;46.17;;;;;;;;;;6312393;22;20160;-70
2022/11/29 07:09:16;;;;;;;228.50;46.03;;;;;;;;;;6308727;22;20612;-70
2022/11/29 07:11:43;;;;;;;242.60;47.67;;;;;;;;;;6308840;22;20152;-70
2022/11/29 07:14:09;;;;;;;248.73;51.90;;;;;;;;;;6306916;22;20257;-70
2022/11/29 07:16:54;;;;;;;249.20;50.70;;;;;;;;;;6308756;22;20155;-70
2022/11/29 07:19:19;;;;;;;248.73;46.23;;;;;;;;;;6310062;22;20172;-70
2022/11/29 07:21:45;;;;;;;238.07;44.97;;;;;;;;;;6308454;22;20684;-70
2022/11/29 07:24:25;;;;;;;254.23;47.43;;;;;;;;;;6310192;22;20236;-70
2022/11/29 07:27:00;;;;;;;242.87;48.50;;;;;;;;;;6310576;22;20141;-70
2022/11/29 07:29:39;;;;;;;228.17;49.03;;;;;;;;;;6310436;22;20166;-70
2022/11/29 07:32:34;;;;;;;236.67;48.30;;;;;;;;;;6308198;22;20582;-70
2022/11/29 07:35:14;;;;;;;244.47;50.30;;;;;;;;;;6227250;22;20624;-70
2022/11/29 07:37:49;;;;;;;241.70;48.40;;;;;;;;;;6310106;22;20508;-70
2022/11/29 07:40:19;;;;;;;215.67;44.77;;;;;;;;;;6309720;22;20590;-70
2022/11/29 07:42:51;;;;;;;207.80;46.03;;;;;;;;;;6308093;22;20153;-70
2022/11/29 07:45:30;;;;;;;220.90;48.17;;;;;;;;;;6309508;22;20153;-70
2022/11/29 07:47:57;;;;;;;240.80;53.03;;;;;;;;;;6309344;22;20579;-70
2022/11/29 07:50:23;;;;;;;211.87;47.50;;;;;;;;;;6309536;22;20159;-70
2022/11/29 07:52:49;;;;;;;224.53;46.30;;;;;;;;;;6310371;22;20153;-70
2022/11/29 07:55:16;;;;;;;226.90;44.77;;;;;;;;;;6309608;22;20513;-70
2022/11/29 07:57:42;;;;;;;230.00;48.43;;;;;;;;;;6307921;22;20601;-70
2022/11/29 08:00:09;;;;;;;240.97;46.87;;;;;;;;;;6309521;22;20168;-70
2022/11/29 08:02:35;;;;;;;285.93;45.93;;;;;;;;;;6307982;22;20183;-70
2022/11/29 08:05:01;;;;;;;292.30;49.37;;;;;;;;;;6307858;22;20606;-70
2022/11/29 08:07:27;;;;;;;362.43;46.57;;;;;;;;;;6307769;22;20180;-70
2022/11/29 08:09:53;;;;;;;335.13;45.03;;;;;;;;;;6309877;22;20156;-70
2022/11/29 08:12:19;;;;;;;396.23;48.97;;;;;;;;;;6309395;22;20209;-70
2022/11/29 08:14:45;;;;;;;447.53;47.37;;;;;;;;;;6307646;22;20221;-70
2022/11/29 08:17:11;;;;;;;359.67;44.50;;;;;;;;;;6309498;22;20592;-70
2022/11/29 08:19:37;;;;;;;413.27;49.73;;;;;;;;;;6307669;22;20664;-69
2022/11/29 08:22:03;;;;;;;357.93;46.57;;;;;;;;;;6309905;22;20151;-70
2022/11/29 08:24:29;;;;;;;385.00;41.13;;;;;;;;;;6310431;22;20158;-69
2022/11/29 08:26:55;;;;;;;334.23;42.23;;;;;;;;;;6310248;22;20228;-70
2022/11/29 08:29:21;;;;;;;256.70;44.10;;;;;;;;;;6311606;22;20175;-70
2022/11/29 08:31:52;;;;;;;269.47;42.30;;;;;;;;;;6310311;22;20166;-70
2022/11/29 08:34:18;;;;;;;228.83;39.93;;;;;;;;;;6312417;22;20611;-70
2022/11/29 08:36:44;;;;;;;256.47;40.13;;;;;;;;;;6311865;22;20152;-70
2022/11/29 08:39:09;;;;;;;230.80;38.17;;;;;;;;;;6312599;22;20172;-70
2022/11/29 08:41:36;;;;;;;204.77;38.37;;;;;;;;;;6310746;22;20141;-69
2022/11/29 08:44:03;;;;;;;213.90;39.93;;;;;;;;;;6309710;22;20152;-70
2022/11/29 08:49:14;;;;;;;213.60;43.47;;;;;;;;;;6309843;22;20199;-70
2022/11/29 08:51:40;;;;;;;198.90;39.63;;;;;;;;;;6309539;22;20156;-71
2022/11/29 08:54:06;;;;;;;205.60;40.60;;;;;;;;;;6309636;22;20203;-70
2022/11/29 08:56:32;;;;;;;209.30;43.17;;;;;;;;;;6309876;22;20148;-70
2022/11/29 08:58:58;;;;;;;203.40;43.03;;;;;;;;;;6308333;22;20195;-70
2022/11/29 09:01:23;;;;;;;228.23;42.80;;;;;;;;;;6310090;22;20494;-70
2022/11/29 09:03:58;;;;;;;213.43;40.87;;;;;;;;;;6311514;22;20160;-70
2022/11/29 09:06:25;;;;;;;211.33;40.93;;;;;;;;;;6320906;22;20148;-70
2022/11/29 09:08:51;;;;;;;213.13;41.03;;;;;;;;;;6326877;22;20172;-69
2022/11/29 09:11:19;;;;;;;220.00;43.70;;;;;;;;;;6326439;22;20202;-70
2022/11/29 09:13:47;;;;;;;201.37;40.63;;;;;;;;;;6319392;22;20192;-70
2022/11/29 09:16:14;;;;;;;216.23;42.30;;;;;;;;;;6309445;22;20144;-70
2022/11/29 09:18:40;;;;;;;212.57;41.07;;;;;;;;;;6307191;22;20180;-70
2022/11/29 09:21:07;;;;;;;211.67;43.53;;;;;;;;;;6309616;22;20489;-70
2022/11/29 09:23:34;;;;;;;204.77;40.57;;;;;;;;;;6309132;22;20590;-70
2022/11/29 09:26:00;;;;;;;191.23;39.67;;;;;;;;;;6309000;22;20153;-69
2022/11/29 09:28:26;;;;;;;192.10;45.03;;;;;;;;;;6308755;22;20175;-70
2022/11/29 09:30:52;;;;;;;184.50;44.83;;;;;;;;;;6307093;22;20157;-71
2022/11/29 09:33:18;;;;;;;193.63;47.33;;;;;;;;;;6307524;22;20164;-70
2022/11/29 09:35:44;;;;;;;182.33;49.20;;;;;;;;;;6309056;22;20175;-70
2022/11/29 09:38:11;;;;;;;177.57;44.33;;;;;;;;;;6308912;22;20169;-70
2022/11/29 09:40:40;;;;;;;184.20;44.83;;;;;;;;;;6306811;22;20163;-70
2022/11/29 09:43:09;;;;;;;174.97;45.33;;;;;;;;;;6309445;22;20636;-70
2022/11/29 09:45:41;;;;;;;178.90;43.97;;;;;;;;;;6307151;22;20167;-70
2022/11/29 09:48:21;;;;;;;172.03;42.43;;;;;;;;;;6308739;22;20276;-70
2022/11/29 09:50:51;;;;;;;172.53;39.27;;;;;;;;;;6309361;22;20144;-70
2022/11/29 09:53:36;;;;;;;160.97;39.67;;;;;;;;;;6310324;22;20159;-68
2022/11/29 09:56:11;;;;;;;158.73;39.13;;;;;;;;;;6308933;22;20156;-68
2022/11/29 09:58:43;;;;;;;166.90;42.20;;;;;;;;;;6308384;22;20621;-68
2022/11/29 10:01:12;;;;;;;165.97;42.83;;;;;;;;;;6308661;22;20239;-69
2022/11/29 10:03:45;;;;;;;155.97;42.90;;;;;;;;;;6306841;22;20164;-68
2022/11/29 10:06:21;;;;;;;159.63;38.77;;;;;;;;;;6308788;22;20158;-69
2022/11/29 10:09:01;;;;;;;190.73;39.90;;;;;;;;;;6308781;22;20195;-69
2022/11/29 10:11:27;;;;;;;172.10;40.40;;;;;;;;;;6308632;22;20156;-69
2022/11/29 10:14:03;;;;;;;161.80;36.80;;;;;;;;;;6310316;22;20179;-69
2022/11/29 10:16:49;;;;;;;170.50;41.37;;;;;;;;;;6311558;22;20148;-69
2022/11/29 10:19:27;;;;;;;186.30;44.47;;;;;;;;;;6310241;22;20175;-69
2022/11/29 10:22:16;;;;;;;171.90;41.10;;;;;;;;;;6308434;22;20167;-69
2022/11/29 10:24:44;;;;;;;212.17;46.50;;;;;;;;;;6266886;22;20468;-70
2022/11/29 10:27:14;;;;;;;190.13;42.73;;;;;;;;;;6308081;22;20187;-69
2022/11/29 10:29:39;;;;;;;175.67;41.23;;;;;;;;;;6310941;22;20168;-69
2022/11/29 10:32:11;;;;;;;191.03;44.43;;;;;;;;;;6308418;22;20167;-69
2022/11/29 10:34:37;;;;;;;170.73;43.27;;;;;;;;;;6308834;22;20165;-69
2022/11/29 10:37:03;;;;;;;179.17;42.17;;;;;;;;;;6308224;22;20495;-69
2022/11/29 10:39:29;;;;;;;174.97;46.33;;;;;;;;;;6308531;22;20157;-69
2022/11/29 10:41:56;;;;;;;160.53;43.10;;;;;;;;;;6308902;22;20605;-69
2022/11/29 10:44:23;;;;;;;147.63;42.13;;;;;;;;;;6308410;22;20231;-69
2022/11/29 10:46:49;;;;;;;134.30;42.37;;;;;;;;;;6308403;22;20594;-69
2022/11/29 10:49:17;;;;;;;126.60;41.33;;;;;;;;;;6306754;22;20192;-69
2022/11/29 10:51:44;;;;;;;128.93;39.07;;;;;;;;;;6307073;22;20152;-69
2022/11/29 10:54:29;;;;;;;125.60;41.47;;;;;;;;;;6308147;22;20204;-68
2022/11/29 10:56:56;;;;;;;111.37;42.67;;;;;;;;;;6306683;22;20475;-68
2022/11/29 10:59:24;;;;;;;143.27;62.60;;;;;;;;;;6312233;22;20271;-71
2022/11/29 11:01:51;;;;;;;129.13;51.30;;;;;;;;;;6313423;22;20149;-69
2022/11/29 11:04:21;;;;;;;137.30;54.33;;;;;;;;;;6313492;22;20209;-69
2022/11/29 11:06:55;;;;;;;126.13;44.13;;;;;;;;;;6313498;22;20133;-68
2022/11/29 11:09:30;;;;;;;122.77;46.00;;;;;;;;;;6307097;22;20234;-69
2022/11/29 11:12:01;;;;;;;120.43;43.37;;;;;;;;;;6308606;22;20152;-69
2022/11/29 11:14:28;;;;;;;122.67;42.37;;;;;;;;;;6307950;22;20172;-69
2022/11/29 11:16:54;;;;;;;117.67;41.70;;;;;;;;;;6308220;22;20219;-69
2022/11/29 11:19:28;;;;;;;117.57;42.67;;;;;;;;;;6308210;22;20626;-69
2022/11/29 11:21:55;;;;;;;117.60;42.27;;;;;;;;;;6307440;22;20160;-69
2022/11/29 11:24:24;;;;;;;117.10;40.90;;;;;;;;;;6307545;22;20598;-69
2022/11/29 11:26:50;;;;;;;113.73;42.57;;;;;;;;;;6309143;22;20602;-69
2022/11/29 11:29:20;;;;;;;114.00;42.40;;;;;;;;;;6309068;22;20178;-69
2022/11/29 11:31:53;;;;;;;115.17;45.03;;;;;;;;;;6306636;22;20226;-69
2022/11/29 11:34:35;;;;;;;116.87;44.50;;;;;;;;;;6308350;22;20176;-69
2022/11/29 11:37:30;;;;;;;113.40;44.07;;;;;;;;;;6308544;22;20152;-70
2022/11/29 11:39:58;;;;;;;117.50;44.77;;;;;;;;;;6288762;22;20153;-69
2022/11/29 11:42:36;;;;;;;106.60;42.83;;;;;;;;;;6307042;22;20180;-69
2022/11/29 11:45:21;;;;;;;110.33;44.97;;;;;;;;;;6307655;22;20144;-69
2022/11/29 11:47:49;;;;;;;110.53;43.93;;;;;;;;;;6306296;22;20199;-69
2022/11/29 11:50:26;;;;;;;115.93;44.87;;;;;;;;;;6305731;22;20225;-69
2022/11/29 11:52:54;;;;;;;117.50;46.17;;;;;;;;;;6307304;22;20137;-68
2022/11/29 11:55:20;;;;;;;116.07;45.03;;;;;;;;;;6304982;22;20660;-70
2022/11/29 11:57:48;;;;;;;109.43;46.13;;;;;;;;;;6305416;22;20196;-70
2022/11/29 12:00:40;;;;;;;117.70;49.50;;;;;;;;;;6307308;22;20514;-69
2022/11/29 12:03:17;;;;;;;114.50;51.70;;;;;;;;;;6272194;22;20157;-70
2022/11/29 12:05:44;;;;;;;117.33;49.97;;;;;;;;;;6309110;22;20445;-69
2022/11/29 12:08:10;;;;;;;121.53;49.43;;;;;;;;;;6308889;22;20180;-69
2022/11/29 12:10:38;;;;;;;117.43;48.57;;;;;;;;;;6307229;22;20156;-69
2022/11/29 12:13:04;;;;;;;117.03;48.57;;;;;;;;;;6309537;22;20223;-69
2022/11/29 12:15:38;;;;;;;122.93;49.30;;;;;;;;;;6309370;22;20183;-70
2022/11/29 12:18:24;;;;;;;123.50;50.00;;;;;;;;;;6309274;22;20165;-69
2022/11/29 12:20:53;;;;;;;131.73;52.27;;;;;;;;;;6309073;22;20186;-69
2022/11/29 12:23:26;;;;;;;120.83;48.47;;;;;;;;;;6308873;22;20199;-69
2022/11/29 12:25:58;;;;;;;106.53;46.60;;;;;;;;;;6237580;22;1177986;-74
2022/11/29 12:28:29;;;;;;;112.43;45.23;;;;;;;;;;6277319;22;20214;-74
2022/11/29 12:31:02;;;;;;;101.57;44.53;;;;;;;;;;6277143;22;20164;-74
2022/11/29 12:33:48;;;;;;;103.03;44.00;;;;;;;;;;6279135;22;20199;-73
2022/11/29 12:36:39;;;;;;;112.67;45.67;;;;;;;;;;6277326;22;20177;-74
2022/11/29 12:39:28;;;;;;;103.37;44.00;;;;;;;;;;6279087;22;20145;-74
2022/11/29 12:42:10;;;;;;;103.83;42.73;;;;;;;;;;6276932;22;20169;-73
2022/11/29 12:44:56;;;;;;;93.87;43.07;;;;;;;;;;6278700;22;20237;-74
2022/11/29 12:47:22;;;;;;;100.37;43.40;;;;;;;;;;6276560;22;20153;-73
2022/11/29 12:49:59;;;;;;;101.47;43.90;;;;;;;;;;6279127;22;20188;-74
2022/11/29 12:52:44;;;;;;;114.40;44.20;;;;;;;;;;6276980;22;20145;-75
2022/11/29 12:55:31;;;;;;;104.30;41.23;;;;;;;;;;6278733;22;20181;-71
2022/11/29 12:58:20;;;;;;;99.73;44.83;;;;;;;;;;6231227;22;20160;-73
2022/11/29 13:00:54;;;;;;;108.20;42.57;;;;;;;;;;6265313;22;20233;-74
2022/11/29 13:03:28;;;;;;;88.87;40.90;;;;;;;;;;6277000;22;20533;-74
2022/11/29 13:06:00;;;;;;;94.83;39.70;;;;;;;;;;6278252;22;20172;-74
2022/11/29 13:08:45;;;;;;;92.97;40.47;;;;;;;;;;6278402;22;20603;-74
2022/11/29 13:11:14;;;;;;;101.43;41.23;;;;;;;;;;6278249;22;20157;-72
2022/11/29 13:13:42;;;;;;;96.60;40.10;;;;;;;;;;6278261;22;20150;-74
2022/11/29 13:16:19;;;;;;;98.80;42.53;;;;;;;;;;6279372;22;20165;-72
2022/11/29 13:19:04;;;;;;;101.97;44.67;;;;;;;;;;6277761;22;20260;-74
2022/11/29 13:21:36;;;;;;;99.20;42.27;;;;;;;;;;6277490;22;20623;-72
2022/11/29 13:24:06;;;;;;;96.93;42.83;;;;;;;;;;6279712;22;20133;-73
2022/11/29 13:26:33;;;;;;;95.70;41.73;;;;;;;;;;6305765;22;20263;-73
2022/11/29 13:29:00;;;;;;;98.87;39.37;;;;;;;;;;6281704;22;20163;-72
2022/11/29 13:31:26;;;;;;;89.53;37.60;;;;;;;;;;6309543;22;20176;-73
2022/11/29 13:33:52;;;;;;;86.90;37.87;;;;;;;;;;6310579;22;20148;-73
2022/11/29 13:36:28;;;;;;;87.73;36.97;;;;;;;;;;6281557;22;20176;-73
2022/11/29 13:38:57;;;;;;;93.67;37.93;;;;;;;;;;6282522;22;20140;-73
2022/11/29 13:41:26;;;;;;;80.17;34.43;;;;;;;;;;6308925;22;20140;-74
2022/11/29 13:44:08;;;;;;;83.63;33.53;;;;;;;;;;6309001;22;20149;-73
2022/11/29 13:46:55;;;;;;;97.70;35.40;;;;;;;;;;6281474;22;20177;-71
2022/11/29 13:49:21;;;;;;;77.60;34.57;;;;;;;;;;6309138;22;20129;-73
2022/11/29 13:51:48;;;;;;;80.90;32.03;;;;;;;;;;6308807;22;20215;-73
2022/11/29 13:54:31;;;;;;;76.53;34.03;;;;;;;;;;6281295;22;20181;-72
2022/11/29 13:57:01;;;;;;;83.63;32.77;;;;;;;;;;6281558;22;20152;-73
2022/11/29 13:59:29;;;;;;;78.43;32.90;;;;;;;;;;6308928;22;20149;-74
2022/11/29 14:01:57;;;;;;;74.37;32.73;;;;;;;;;;6281260;22;20167;-76
2022/11/29 14:04:26;;;;;;;78.50;32.60;;;;;;;;;;6280997;22;20160;-72
2022/11/29 14:07:10;;;;;;;80.70;31.83;;;;;;;;;;6308508;22;20164;-73
2022/11/29 14:09:50;;;;;;;68.97;29.23;;;;;;;;;;6281457;22;20644;-75
2022/11/29 14:12:29;;;;;;;69.57;29.70;;;;;;;;;;6308510;22;20270;-74
2022/11/29 14:15:14;;;;;;;71.97;29.23;;;;;;;;;;6281000;22;20657;-74
2022/11/29 14:17:49;;;;;;;68.87;29.40;;;;;;;;;;6308596;22;20172;-74
2022/11/29 14:20:35;;;;;;;81.13;41.53;;;;;;;;;;6308999;22;20144;-71
2022/11/29 14:23:04;;;;;;;72.40;32.37;;;;;;;;;;6287907;22;20160;-73
2022/11/29 14:25:30;;;;;;;76.97;34.80;;;;;;;;;;6281458;22;20195;-73
2022/11/29 14:27:58;;;;;;;77.17;33.87;;;;;;;;;;6308919;22;20240;-72
2022/11/29 14:30:39;;;;;;;80.77;38.07;;;;;;;;;;6280959;22;20282;-71
2022/11/29 14:33:11;;;;;;;103.60;49.70;;;;;;;;;;6281267;22;20171;-71
2022/11/29 14:35:45;;;;;;;105.37;48.00;;;;;;;;;;6307979;22;20255;-70
2022/11/29 14:38:18;;;;;;;118.13;61.50;;;;;;;;;;6308242;22;20145;-72
2022/11/29 14:40:48;;;;;;;105.33;52.03;;;;;;;;;;6280564;22;20202;-71